sensor_id;sensor_type;location;lat;lon;timestamp;temperature;humidity
13589;DHT22;6865;52.552;13.434;2023-11-22T00:00:14;1.10;99.90
13589;DHT22;6865;52.552;13.434;2023-11-22T00:02:41;1.00;99.90
13589;DHT22;6865;52.552;13.434;2023-11-22T00:05:08;1.00;99.90
13589;DHT22;6865;52.552;13.434;2023-11-22T00:07:35;1.00;99.90
13589;DHT22;6865;52.552;13.434;2023-11-22T00:10:04;0.60;99.90
13589;DHT22;6865;52.552;13.434;2023-11-22T00:12:31;1.00;99.90
13589;DHT22;6865;52.552;13.434;2023-11-22T00:15:04;1.00;99.90
13589;DHT22;6865;52.552;13.434;2023-11-22T00:17:34;1.00;99.90
13589;DHT22;6865;52.552;13.434;2023-11-22T00:20:01;1.00;99.90
13589;DHT22;6865;52.552;13.434;2023-11-22T00:22:32;1.00;99.90
13589;DHT22;6865;52.552;13.434;2023-11-22T00:25:00;1.00;99.90
13589;DHT22;6865;52.552;13.434;2023-11-22T00:27:30;1.00;99.90
13589;DHT22;6865;52.552;13.434;2023-11-22T00:29:58;1.00;99.90
13589;DHT22;6865;52.552;13.434;2023-11-22T00:32:25;0.90;99.90
13589;DHT22;6865;52.552;13.434;2023-11-22T00:34:55;0.90;99.90
13589;DHT22;6865;52.552;13.434;2023-11-22T00:37:21;0.90;99.90
13589;DHT22;6865;52.552;13.434;2023-11-22T00:39:48;1.00;99.90
13589;DHT22;6865;52.552;13.434;2023-11-22T00:42:15;0.90;99.90
13589;DHT22;6865;52.552;13.434;2023-11-22T00:44:41;0.90;99.90
13589;DHT22;6865;52.552;13.434;2023-11-22T00:47:08;0.90;99.90
13589;DHT22;6865;52.552;13.434;2023-11-22T00:49:35;0.90;99.90
13589;DHT22;6865;52.552;13.434;2023-11-22T00:52:01;0.90;99.90
13589;DHT22;6865;52.552;13.434;2023-11-22T00:54:30;0.90;99.90
13589;DHT22;6865;52.552;13.434;2023-11-22T00:56:56;0.90;99.90
13589;DHT22;6865;52.552;13.434;2023-11-22T00:59:23;0.80;99.90
13589;DHT22;6865;52.552;13.434;2023-11-22T01:01:49;0.80;99.90
13589;DHT22;6865;52.552;13.434;2023-11-22T01:04:16;0.80;99.90
13589;DHT22;6865;52.552;13.434;2023-11-22T01:06:43;0.70;99.90
13589;DHT22;6865;52.552;13.434;2023-11-22T01:09:10;0.70;99.90
13589;DHT22;6865;52.552;13.434;2023-11-22T01:11:40;0.60;99.90
13589;DHT22;6865;52.552;13.434;2023-11-22T01:14:07;0.60;99.90
13589;DHT22;6865;52.552;13.434;2023-11-22T01:16:33;0.50;99.90
13589;DHT22;6865;52.552;13.434;2023-11-22T01:19:00;0.40;99.90
13589;DHT22;6865;52.552;13.434;2023-11-22T01:21:27;0.40;99.90
13589;DHT22;6865;52.552;13.434;2023-11-22T01:23:54;0.30;99.90
13589;DHT22;6865;52.552;13.434;2023-11-22T01:26:21;0.30;99.90
13589;DHT22;6865;52.552;13.434;2023-11-22T01:28:48;0.30;99.90
13589;DHT22;6865;52.552;13.434;2023-11-22T01:31:15;0.20;99.90
13589;DHT22;6865;52.552;13.434;2023-11-22T01:33:42;0.20;99.90
13589;DHT22;6865;52.552;13.434;2023-11-22T01:36:08;0.20;99.90
13589;DHT22;6865;52.552;13.434;2023-11-22T01:38:35;-0.50;99.90
13589;DHT22;6865;52.552;13.434;2023-11-22T01:41:02;0.10;99.90
13589;DHT22;6865;52.552;13.434;2023-11-22T01:43:29;0.20;99.90
13589;DHT22;6865;52.552;13.434;2023-11-22T01:45:55;0.10;99.90
13589;DHT22;6865;52.552;13.434;2023-11-22T01:48:23;0.10;99.90
13589;DHT22;6865;52.552;13.434;2023-11-22T01:50:50;0.10;99.90
13589;DHT22;6865;52.552;13.434;2023-11-22T01:53:17;0.10;99.90
13589;DHT22;6865;52.552;13.434;2023-11-22T01:55:45;0.10;99.90
13589;DHT22;6865;52.552;13.434;2023-11-22T01:58:13;0.00;99.90
13589;DHT22;6865;52.552;13.434;2023-11-22T02:00:49;0.00;99.90
13589;DHT22;6865;52.552;13.434;2023-11-22T02:03:16;0.00;99.90
13589;DHT22;6865;52.552;13.434;2023-11-22T02:05:43;0.00;99.90
13589;DHT22;6865;52.552;13.434;2023-11-22T02:08:11;0.00;99.90
13589;DHT22;6865;52.552;13.434;2023-11-22T02:10:38;0.00;99.90
13589;DHT22;6865;52.552;13.434;2023-11-22T02:13:08;-0.10;99.90
13589;DHT22;6865;52.552;13.434;2023-11-22T02:15:34;-0.10;99.90
13589;DHT22;6865;52.552;13.434;2023-11-22T02:18:02;-0.10;99.90
13589;DHT22;6865;52.552;13.434;2023-11-22T02:20:38;-0.10;99.90
13589;DHT22;6865;52.552;13.434;2023-11-22T02:23:09;-0.10;99.90
13589;DHT22;6865;52.552;13.434;2023-11-22T02:25:37;-0.20;99.90
13589;DHT22;6865;52.552;13.434;2023-11-22T02:28:04;-0.10;99.90
13589;DHT22;6865;52.552;13.434;2023-11-22T02:30:31;-0.20;99.90
13589;DHT22;6865;52.552;13.434;2023-11-22T02:32:58;-0.10;99.90
13589;DHT22;6865;52.552;13.434;2023-11-22T02:35:24;-0.10;85.00
13589;DHT22;6865;52.552;13.434;2023-11-22T02:37:53;-0.10;60.90
13589;DHT22;6865;52.552;13.434;2023-11-22T02:40:21;-0.20;32.50
13589;DHT22;6865;52.552;13.434;2023-11-22T02:42:49;-0.20;25.10
13589;DHT22;6865;52.552;13.434;2023-11-22T02:45:17;-0.20;21.70
13589;DHT22;6865;52.552;13.434;2023-11-22T02:47:45;-0.20;28.90
13589;DHT22;6865;52.552;13.434;2023-11-22T02:50:13;-0.30;28.90
13589;DHT22;6865;52.552;13.434;2023-11-22T02:52:40;-0.40;18.20
13589;DHT22;6865;52.552;13.434;2023-11-22T02:55:08;-0.70;19.50
13589;DHT22;6865;52.552;13.434;2023-11-22T02:57:38;-0.40;34.30
13589;DHT22;6865;52.552;13.434;2023-11-22T03:00:07;-0.40;53.80
13589;DHT22;6865;52.552;13.434;2023-11-22T03:02:35;-0.30;75.10
13589;DHT22;6865;52.552;13.434;2023-11-22T03:05:02;-0.40;94.90
13589;DHT22;6865;52.552;13.434;2023-11-22T03:07:29;-0.40;99.90
13589;DHT22;6865;52.552;13.434;2023-11-22T03:09:56;-0.80;99.90
13589;DHT22;6865;52.552;13.434;2023-11-22T03:12:26;-0.30;99.90
13589;DHT22;6865;52.552;13.434;2023-11-22T03:14:53;-0.50;99.90
13589;DHT22;6865;52.552;13.434;2023-11-22T03:17:26;-0.50;99.90
13589;DHT22;6865;52.552;13.434;2023-11-22T03:19:56;-0.50;99.90
13589;DHT22;6865;52.552;13.434;2023-11-22T03:22:27;-0.50;99.90
13589;DHT22;6865;52.552;13.434;2023-11-22T03:24:58;-0.60;99.90
13589;DHT22;6865;52.552;13.434;2023-11-22T03:27:25;-0.60;99.90
13589;DHT22;6865;52.552;13.434;2023-11-22T03:29:52;-0.60;99.90
13589;DHT22;6865;52.552;13.434;2023-11-22T03:32:19;-0.60;99.90
13589;DHT22;6865;52.552;13.434;2023-11-22T03:34:46;-0.60;99.90
13589;DHT22;6865;52.552;13.434;2023-11-22T03:37:13;-0.90;99.90
13589;DHT22;6865;52.552;13.434;2023-11-22T03:39:39;-0.70;99.90
13589;DHT22;6865;52.552;13.434;2023-11-22T03:42:06;-0.70;99.90
13589;DHT22;6865;52.552;13.434;2023-11-22T03:44:33;-0.70;99.90
13589;DHT22;6865;52.552;13.434;2023-11-22T03:47:00;-0.80;99.90
13589;DHT22;6865;52.552;13.434;2023-11-22T03:49:26;-0.90;99.90
13589;DHT22;6865;52.552;13.434;2023-11-22T03:51:53;-0.90;99.90
13589;DHT22;6865;52.552;13.434;2023-11-22T03:54:20;-0.90;99.90
13589;DHT22;6865;52.552;13.434;2023-11-22T03:56:47;-0.90;99.90
13589;DHT22;6865;52.552;13.434;2023-11-22T03:59:13;-1.00;99.90
13589;DHT22;6865;52.552;13.434;2023-11-22T04:01:40;-1.00;99.90
13589;DHT22;6865;52.552;13.434;2023-11-22T04:04:07;-1.00;99.90
13589;DHT22;6865;52.552;13.434;2023-11-22T04:06:36;-1.50;99.90
13589;DHT22;6865;52.552;13.434;2023-11-22T04:09:03;-1.10;99.90
13589;DHT22;6865;52.552;13.434;2023-11-22T04:11:30;-1.10;99.90
13589;DHT22;6865;52.552;13.434;2023-11-22T04:13:57;-1.10;99.90
13589;DHT22;6865;52.552;13.434;2023-11-22T04:16:24;-1.10;99.90
13589;DHT22;6865;52.552;13.434;2023-11-22T04:18:52;-1.00;99.90
13589;DHT22;6865;52.552;13.434;2023-11-22T04:21:19;-1.00;99.90
13589;DHT22;6865;52.552;13.434;2023-11-22T04:23:46;-1.40;99.90
13589;DHT22;6865;52.552;13.434;2023-11-22T04:26:12;-1.10;99.90
13589;DHT22;6865;52.552;13.434;2023-11-22T04:28:39;-1.10;99.90
13589;DHT22;6865;52.552;13.434;2023-11-22T04:31:06;-1.20;99.90
13589;DHT22;6865;52.552;13.434;2023-11-22T04:33:35;-1.20;99.90
13589;DHT22;6865;52.552;13.434;2023-11-22T04:36:03;-1.30;99.90
13589;DHT22;6865;52.552;13.434;2023-11-22T04:38:29;-1.40;99.90
13589;DHT22;6865;52.552;13.434;2023-11-22T04:40:56;-1.30;99.90
13589;DHT22;6865;52.552;13.434;2023-11-22T04:43:23;-1.30;99.90
13589;DHT22;6865;52.552;13.434;2023-11-22T04:45:49;-1.20;99.90
13589;DHT22;6865;52.552;13.434;2023-11-22T04:48:16;-1.30;99.90
13589;DHT22;6865;52.552;13.434;2023-11-22T04:50:43;-1.30;99.90
13589;DHT22;6865;52.552;13.434;2023-11-22T04:53:10;-1.60;99.90
13589;DHT22;6865;52.552;13.434;2023-11-22T04:55:37;-1.20;99.90
13589;DHT22;6865;52.552;13.434;2023-11-22T04:58:04;-1.30;99.90
13589;DHT22;6865;52.552;13.434;2023-11-22T05:00:30;-1.30;99.90
13589;DHT22;6865;52.552;13.434;2023-11-22T05:02:57;-1.30;99.90
13589;DHT22;6865;52.552;13.434;2023-11-22T05:05:24;-1.40;99.90
13589;DHT22;6865;52.552;13.434;2023-11-22T05:07:51;-1.30;99.90
13589;DHT22;6865;52.552;13.434;2023-11-22T05:10:18;-1.50;99.90
13589;DHT22;6865;52.552;13.434;2023-11-22T05:12:45;-1.30;99.90
13589;DHT22;6865;52.552;13.434;2023-11-22T05:15:12;-1.30;99.90
13589;DHT22;6865;52.552;13.434;2023-11-22T05:17:40;-1.40;99.90
13589;DHT22;6865;52.552;13.434;2023-11-22T05:20:07;-1.50;99.90
13589;DHT22;6865;52.552;13.434;2023-11-22T05:22:36;-1.60;99.90
13589;DHT22;6865;52.552;13.434;2023-11-22T05:25:04;-1.60;99.90
13589;DHT22;6865;52.552;13.434;2023-11-22T05:27:33;-1.60;99.90
13589;DHT22;6865;52.552;13.434;2023-11-22T05:29:59;-1.60;99.90
13589;DHT22;6865;52.552;13.434;2023-11-22T05:32:28;-1.70;99.90
13589;DHT22;6865;52.552;13.434;2023-11-22T05:34:55;-1.70;99.90
13589;DHT22;6865;52.552;13.434;2023-11-22T05:37:22;-1.70;99.90
13589;DHT22;6865;52.552;13.434;2023-11-22T05:39:51;-1.60;99.90
13589;DHT22;6865;52.552;13.434;2023-11-22T05:42:17;-1.60;99.90
13589;DHT22;6865;52.552;13.434;2023-11-22T05:44:44;-1.60;99.90
13589;DHT22;6865;52.552;13.434;2023-11-22T05:47:11;-1.50;99.90
13589;DHT22;6865;52.552;13.434;2023-11-22T05:49:39;-1.50;99.90
13589;DHT22;6865;52.552;13.434;2023-11-22T05:52:06;-1.50;99.90
13589;DHT22;6865;52.552;13.434;2023-11-22T05:54:33;-1.50;99.90
13589;DHT22;6865;52.552;13.434;2023-11-22T05:57:00;-1.50;99.90
13589;DHT22;6865;52.552;13.434;2023-11-22T05:59:26;-1.50;99.90
13589;DHT22;6865;52.552;13.434;2023-11-22T06:01:53;-1.20;99.90
13589;DHT22;6865;52.552;13.434;2023-11-22T06:04:20;-1.40;99.90
13589;DHT22;6865;52.552;13.434;2023-11-22T06:06:47;-1.50;99.90
13589;DHT22;6865;52.552;13.434;2023-11-22T06:09:14;-1.50;99.90
13589;DHT22;6865;52.552;13.434;2023-11-22T06:11:41;-1.40;99.90
13589;DHT22;6865;52.552;13.434;2023-11-22T06:14:08;-1.10;99.90
13589;DHT22;6865;52.552;13.434;2023-11-22T06:16:35;-1.60;99.90
13589;DHT22;6865;52.552;13.434;2023-11-22T06:19:01;-1.60;99.90
13589;DHT22;6865;52.552;13.434;2023-11-22T06:21:28;-1.60;99.90
13589;DHT22;6865;52.552;13.434;2023-11-22T06:23:55;-1.60;99.90
13589;DHT22;6865;52.552;13.434;2023-11-22T06:26:24;-1.60;99.90
13589;DHT22;6865;52.552;13.434;2023-11-22T06:28:51;-1.60;99.90
13589;DHT22;6865;52.552;13.434;2023-11-22T06:31:18;-1.60;99.90
13589;DHT22;6865;52.552;13.434;2023-11-22T06:33:45;-1.60;99.90
13589;DHT22;6865;52.552;13.434;2023-11-22T06:36:12;-1.70;99.90
13589;DHT22;6865;52.552;13.434;2023-11-22T06:38:41;-1.70;99.90
13589;DHT22;6865;52.552;13.434;2023-11-22T06:41:08;-1.50;99.90
13589;DHT22;6865;52.552;13.434;2023-11-22T06:43:35;-1.80;99.90
13589;DHT22;6865;52.552;13.434;2023-11-22T06:46:01;-2.30;99.90
13589;DHT22;6865;52.552;13.434;2023-11-22T06:48:32;-1.80;99.90
13589;DHT22;6865;52.552;13.434;2023-11-22T06:51:00;-1.90;99.90
13589;DHT22;6865;52.552;13.434;2023-11-22T06:53:27;-1.80;99.90
13589;DHT22;6865;52.552;13.434;2023-11-22T06:55:54;-1.80;99.90
13589;DHT22;6865;52.552;13.434;2023-11-22T06:58:21;-1.80;99.90
13589;DHT22;6865;52.552;13.434;2023-11-22T07:00:48;-1.70;99.90
13589;DHT22;6865;52.552;13.434;2023-11-22T07:03:15;-1.70;99.90
13589;DHT22;6865;52.552;13.434;2023-11-22T07:05:43;-1.70;99.90
13589;DHT22;6865;52.552;13.434;2023-11-22T07:08:10;-1.60;99.90
13589;DHT22;6865;52.552;13.434;2023-11-22T07:10:43;-1.70;99.90
13589;DHT22;6865;52.552;13.434;2023-11-22T07:13:11;-1.60;99.90
13589;DHT22;6865;52.552;13.434;2023-11-22T07:15:39;-1.60;99.90
13589;DHT22;6865;52.552;13.434;2023-11-22T07:18:07;-1.60;99.90
13589;DHT22;6865;52.552;13.434;2023-11-22T07:20:36;-1.60;99.90
13589;DHT22;6865;52.552;13.434;2023-11-22T07:23:05;-1.60;99.90
13589;DHT22;6865;52.552;13.434;2023-11-22T07:25:32;-1.70;99.90
13589;DHT22;6865;52.552;13.434;2023-11-22T07:28:00;-1.90;99.90
13589;DHT22;6865;52.552;13.434;2023-11-22T07:30:27;-1.60;99.90
13589;DHT22;6865;52.552;13.434;2023-11-22T07:32:57;-1.60;99.90
13589;DHT22;6865;52.552;13.434;2023-11-22T07:35:26;-1.50;99.90
13589;DHT22;6865;52.552;13.434;2023-11-22T07:37:55;-1.50;99.90
13589;DHT22;6865;52.552;13.434;2023-11-22T07:40:22;-1.50;99.90
13589;DHT22;6865;52.552;13.434;2023-11-22T07:42:49;-1.40;99.90
13589;DHT22;6865;52.552;13.434;2023-11-22T07:45:16;-1.40;99.90
13589;DHT22;6865;52.552;13.434;2023-11-22T07:47:43;-1.20;99.90
13589;DHT22;6865;52.552;13.434;2023-11-22T07:50:11;-1.40;99.90
13589;DHT22;6865;52.552;13.434;2023-11-22T07:52:38;-1.40;99.90
13589;DHT22;6865;52.552;13.434;2023-11-22T07:55:07;-1.30;99.90
13589;DHT22;6865;52.552;13.434;2023-11-22T07:57:34;-1.20;99.90
13589;DHT22;6865;52.552;13.434;2023-11-22T08:00:01;-1.10;99.90
13589;DHT22;6865;52.552;13.434;2023-11-22T08:02:31;-1.10;99.90
13589;DHT22;6865;52.552;13.434;2023-11-22T08:05:00;-1.10;99.90
13589;DHT22;6865;52.552;13.434;2023-11-22T08:07:30;-1.10;99.90
13589;DHT22;6865;52.552;13.434;2023-11-22T08:09:56;-1.10;99.90
13589;DHT22;6865;52.552;13.434;2023-11-22T08:12:23;-1.00;99.90
13589;DHT22;6865;52.552;13.434;2023-11-22T08:14:50;-1.00;99.90
13589;DHT22;6865;52.552;13.434;2023-11-22T08:17:17;-0.70;99.90
13589;DHT22;6865;52.552;13.434;2023-11-22T08:19:46;-0.80;99.90
13589;DHT22;6865;52.552;13.434;2023-11-22T08:22:14;-0.70;99.90
13589;DHT22;6865;52.552;13.434;2023-11-22T08:24:41;-0.70;99.90
13589;DHT22;6865;52.552;13.434;2023-11-22T08:27:07;-0.60;99.90
13589;DHT22;6865;52.552;13.434;2023-11-22T08:29:34;-0.60;99.90
13589;DHT22;6865;52.552;13.434;2023-11-22T08:32:01;-0.50;99.90
13589;DHT22;6865;52.552;13.434;2023-11-22T08:34:28;-0.50;99.90
13589;DHT22;6865;52.552;13.434;2023-11-22T08:36:55;-0.40;99.90
13589;DHT22;6865;52.552;13.434;2023-11-22T08:39:24;-0.40;99.90
13589;DHT22;6865;52.552;13.434;2023-11-22T08:41:51;-0.30;99.90
13589;DHT22;6865;52.552;13.434;2023-11-22T08:44:17;-0.20;99.90
13589;DHT22;6865;52.552;13.434;2023-11-22T08:46:44;-0.10;99.90
13589;DHT22;6865;52.552;13.434;2023-11-22T08:49:13;-0.10;99.90
13589;DHT22;6865;52.552;13.434;2023-11-22T08:51:41;0.00;99.90
13589;DHT22;6865;52.552;13.434;2023-11-22T08:54:09;0.00;99.90
13589;DHT22;6865;52.552;13.434;2023-11-22T08:56:36;0.10;99.90
13589;DHT22;6865;52.552;13.434;2023-11-22T08:59:03;1.70;99.90
13589;DHT22;6865;52.552;13.434;2023-11-22T09:01:32;0.10;99.90
13589;DHT22;6865;52.552;13.434;2023-11-22T09:03:59;0.10;99.90
13589;DHT22;6865;52.552;13.434;2023-11-22T09:06:26;0.20;99.90
13589;DHT22;6865;52.552;13.434;2023-11-22T09:08:53;0.20;99.90
13589;DHT22;6865;52.552;13.434;2023-11-22T09:11:20;0.30;93.00
13589;DHT22;6865;52.552;13.434;2023-11-22T09:13:49;0.40;71.80
13589;DHT22;6865;52.552;13.434;2023-11-22T09:16:16;0.40;90.80
13589;DHT22;6865;52.552;13.434;2023-11-22T09:18:45;0.50;76.50
13589;DHT22;6865;52.552;13.434;2023-11-22T09:21:12;0.50;65.20
13589;DHT22;6865;52.552;13.434;2023-11-22T09:23:43;0.60;48.80
13589;DHT22;6865;52.552;13.434;2023-11-22T09:26:12;0.50;52.70
13589;DHT22;6865;52.552;13.434;2023-11-22T09:28:40;0.70;30.80
13589;DHT22;6865;52.552;13.434;2023-11-22T09:31:07;0.60;42.00
13589;DHT22;6865;52.552;13.434;2023-11-22T09:33:34;0.80;20.90
13589;DHT22;6865;52.552;13.434;2023-11-22T09:36:01;0.90;1.00
13589;DHT22;6865;52.552;13.434;2023-11-22T09:38:34;0.90;1.00
13589;DHT22;6865;52.552;13.434;2023-11-22T09:41:01;1.00;1.00
13589;DHT22;6865;52.552;13.434;2023-11-22T09:43:29;1.00;1.00
13589;DHT22;6865;52.552;13.434;2023-11-22T09:45:56;1.10;1.00
13589;DHT22;6865;52.552;13.434;2023-11-22T09:48:25;1.10;1.00
13589;DHT22;6865;52.552;13.434;2023-11-22T09:51:08;1.20;1.00
13589;DHT22;6865;52.552;13.434;2023-11-22T09:53:41;1.30;1.00
13589;DHT22;6865;52.552;13.434;2023-11-22T09:56:09;1.40;1.00
13589;DHT22;6865;52.552;13.434;2023-11-22T09:58:40;1.40;99.90
13589;DHT22;6865;52.552;13.434;2023-11-22T10:01:14;1.40;99.90
13589;DHT22;6865;52.552;13.434;2023-11-22T10:03:42;1.50;99.90
13589;DHT22;6865;52.552;13.434;2023-11-22T10:06:09;1.60;99.90
13589;DHT22;6865;52.552;13.434;2023-11-22T10:08:36;1.60;99.90
13589;DHT22;6865;52.552;13.434;2023-11-22T10:11:05;1.60;1.00
13589;DHT22;6865;52.552;13.434;2023-11-22T10:13:32;1.70;99.90
13589;DHT22;6865;52.552;13.434;2023-11-22T10:16:12;1.80;99.90
13589;DHT22;6865;52.552;13.434;2023-11-22T10:18:43;1.90;99.90
13589;DHT22;6865;52.552;13.434;2023-11-22T10:23:55;2.00;1.00
13589;DHT22;6865;52.552;13.434;2023-11-22T10:26:24;2.00;1.00
13589;DHT22;6865;52.552;13.434;2023-11-22T10:28:52;2.10;1.00
13589;DHT22;6865;52.552;13.434;2023-11-22T10:31:20;2.10;1.00
13589;DHT22;6865;52.552;13.434;2023-11-22T10:33:49;2.20;1.00
13589;DHT22;6865;52.552;13.434;2023-11-22T10:36:16;2.30;99.90
13589;DHT22;6865;52.552;13.434;2023-11-22T10:38:48;2.30;1.00
13589;DHT22;6865;52.552;13.434;2023-11-22T10:41:15;2.30;47.10
13589;DHT22;6865;52.552;13.434;2023-11-22T10:43:44;2.30;99.90
13589;DHT22;6865;52.552;13.434;2023-11-22T10:46:13;2.20;1.00
13589;DHT22;6865;52.552;13.434;2023-11-22T10:48:40;2.20;99.90
13589;DHT22;6865;52.552;13.434;2023-11-22T10:51:12;2.30;99.90
13589;DHT22;6865;52.552;13.434;2023-11-22T10:53:45;2.40;39.60
13589;DHT22;6865;52.552;13.434;2023-11-22T10:56:16;2.40;1.00
13589;DHT22;6865;52.552;13.434;2023-11-22T10:58:51;1.90;5.90
13589;DHT22;6865;52.552;13.434;2023-11-22T11:01:24;2.20;93.00
13589;DHT22;6865;52.552;13.434;2023-11-22T11:04:09;2.30;99.90
13589;DHT22;6865;52.552;13.434;2023-11-22T11:06:38;2.40;22.50
13589;DHT22;6865;52.552;13.434;2023-11-22T11:09:06;2.40;52.00
13589;DHT22;6865;52.552;13.434;2023-11-22T11:11:42;2.40;99.90
13589;DHT22;6865;52.552;13.434;2023-11-22T11:14:11;2.50;99.30
13589;DHT22;6865;52.552;13.434;2023-11-22T11:16:39;2.70;99.90
13589;DHT22;6865;52.552;13.434;2023-11-22T11:19:15;2.70;1.00
13589;DHT22;6865;52.552;13.434;2023-11-22T11:21:44;2.80;1.00
13589;DHT22;6865;52.552;13.434;2023-11-22T11:24:11;2.80;1.00
13589;DHT22;6865;52.552;13.434;2023-11-22T11:26:38;2.70;1.00
13589;DHT22;6865;52.552;13.434;2023-11-22T11:29:05;2.70;1.00
13589;DHT22;6865;52.552;13.434;2023-11-22T11:31:38;2.80;1.00
13589;DHT22;6865;52.552;13.434;2023-11-22T11:34:06;2.70;1.00
13589;DHT22;6865;52.552;13.434;2023-11-22T11:36:33;2.60;1.00
13589;DHT22;6865;52.552;13.434;2023-11-22T11:39:05;2.50;1.00
13589;DHT22;6865;52.552;13.434;2023-11-22T11:41:37;2.50;1.00
13589;DHT22;6865;52.552;13.434;2023-11-22T11:44:07;2.50;10.60
13589;DHT22;6865;52.552;13.434;2023-11-22T11:46:34;2.60;99.90
13589;DHT22;6865;52.552;13.434;2023-11-22T11:49:06;2.70;92.20
13589;DHT22;6865;52.552;13.434;2023-11-22T11:51:34;2.90;1.00
13589;DHT22;6865;52.552;13.434;2023-11-22T11:54:01;2.90;1.00
13589;DHT22;6865;52.552;13.434;2023-11-22T11:56:28;2.90;1.00
13589;DHT22;6865;52.552;13.434;2023-11-22T11:58:57;2.60;1.00
13589;DHT22;6865;52.552;13.434;2023-11-22T12:01:30;2.90;1.00
13589;DHT22;6865;52.552;13.434;2023-11-22T12:04:02;2.90;1.00
13589;DHT22;6865;52.552;13.434;2023-11-22T12:06:29;3.00;1.00
13589;DHT22;6865;52.552;13.434;2023-11-22T12:09:00;3.00;1.00
13589;DHT22;6865;52.552;13.434;2023-11-22T12:11:28;3.00;1.00
13589;DHT22;6865;52.552;13.434;2023-11-22T12:13:56;3.20;1.00
13589;DHT22;6865;52.552;13.434;2023-11-22T12:16:25;3.20;1.00
13589;DHT22;6865;52.552;13.434;2023-11-22T12:18:54;3.30;1.00
13589;DHT22;6865;52.552;13.434;2023-11-22T12:21:22;3.30;99.90
13589;DHT22;6865;52.552;13.434;2023-11-22T12:23:49;3.30;99.90
13589;DHT22;6865;52.552;13.434;2023-11-22T12:26:17;3.20;99.90
13589;DHT22;6865;52.552;13.434;2023-11-22T12:28:47;3.30;99.90
13589;DHT22;6865;52.552;13.434;2023-11-22T12:31:29;3.30;99.90
13589;DHT22;6865;52.552;13.434;2023-11-22T12:34:00;3.30;99.90
13589;DHT22;6865;52.552;13.434;2023-11-22T12:36:29;3.30;99.90
13589;DHT22;6865;52.552;13.434;2023-11-22T12:38:56;3.40;99.90
13589;DHT22;6865;52.552;13.434;2023-11-22T12:41:26;3.50;99.90
13589;DHT22;6865;52.552;13.434;2023-11-22T12:44:07;3.60;99.90
13589;DHT22;6865;52.552;13.434;2023-11-22T12:46:52;4.00;99.90
13589;DHT22;6865;52.552;13.434;2023-11-22T12:49:27;3.80;99.90
13589;DHT22;6865;52.552;13.434;2023-11-22T12:51:57;3.90;99.90
13589;DHT22;6865;52.552;13.434;2023-11-22T12:54:24;3.80;96.70
13589;DHT22;6865;52.552;13.434;2023-11-22T12:56:51;3.80;99.90
13589;DHT22;6865;52.552;13.434;2023-11-22T12:59:24;3.70;99.90
13589;DHT22;6865;52.552;13.434;2023-11-22T13:01:54;3.60;99.90
13589;DHT22;6865;52.552;13.434;2023-11-22T13:04:22;3.50;99.90
13589;DHT22;6865;52.552;13.434;2023-11-22T13:06:49;3.20;99.90
13589;DHT22;6865;52.552;13.434;2023-11-22T13:09:16;3.20;99.90
13589;DHT22;6865;52.552;13.434;2023-11-22T13:11:43;3.10;99.90
13589;DHT22;6865;52.552;13.434;2023-11-22T13:14:10;3.10;99.90
13589;DHT22;6865;52.552;13.434;2023-11-22T13:16:41;3.30;99.90
13589;DHT22;6865;52.552;13.434;2023-11-22T13:19:08;3.30;99.90
13589;DHT22;6865;52.552;13.434;2023-11-22T13:21:35;3.30;99.90
13589;DHT22;6865;52.552;13.434;2023-11-22T13:24:02;3.30;99.90
13589;DHT22;6865;52.552;13.434;2023-11-22T13:26:31;3.30;99.90
13589;DHT22;6865;52.552;13.434;2023-11-22T13:28:57;3.30;99.90
13589;DHT22;6865;52.552;13.434;2023-11-22T13:31:25;3.40;99.90
13589;DHT22;6865;52.552;13.434;2023-11-22T13:33:52;3.50;99.90
13589;DHT22;6865;52.552;13.434;2023-11-22T13:36:19;3.30;99.90
13589;DHT22;6865;52.552;13.434;2023-11-22T13:38:45;3.30;99.90
13589;DHT22;6865;52.552;13.434;2023-11-22T13:41:12;3.30;99.90
13589;DHT22;6865;52.552;13.434;2023-11-22T13:43:39;3.30;99.90
13589;DHT22;6865;52.552;13.434;2023-11-22T13:46:06;3.30;99.90
13589;DHT22;6865;52.552;13.434;2023-11-22T13:48:36;3.30;99.90
13589;DHT22;6865;52.552;13.434;2023-11-22T13:51:03;3.20;99.90
13589;DHT22;6865;52.552;13.434;2023-11-22T13:53:33;3.20;99.90
13589;DHT22;6865;52.552;13.434;2023-11-22T13:56:03;3.20;99.90
13589;DHT22;6865;52.552;13.434;2023-11-22T13:58:35;3.10;99.90
13589;DHT22;6865;52.552;13.434;2023-11-22T14:01:02;3.10;99.90
13589;DHT22;6865;52.552;13.434;2023-11-22T14:03:32;3.10;99.90
13589;DHT22;6865;52.552;13.434;2023-11-22T14:06:00;3.10;99.90
13589;DHT22;6865;52.552;13.434;2023-11-22T14:08:27;3.10;99.90
13589;DHT22;6865;52.552;13.434;2023-11-22T14:10:54;3.10;99.90
13589;DHT22;6865;52.552;13.434;2023-11-22T14:13:21;2.80;99.90
13589;DHT22;6865;52.552;13.434;2023-11-22T14:15:48;2.70;99.90
13589;DHT22;6865;52.552;13.434;2023-11-22T14:18:15;2.70;99.90
13589;DHT22;6865;52.552;13.434;2023-11-22T14:20:41;2.70;99.90
13589;DHT22;6865;52.552;13.434;2023-11-22T14:23:08;2.70;99.90
13589;DHT22;6865;52.552;13.434;2023-11-22T14:25:35;2.70;99.90
13589;DHT22;6865;52.552;13.434;2023-11-22T14:28:01;2.50;99.90
13589;DHT22;6865;52.552;13.434;2023-11-22T14:30:28;2.70;99.90
13589;DHT22;6865;52.552;13.434;2023-11-22T14:32:57;2.70;99.90
13589;DHT22;6865;52.552;13.434;2023-11-22T14:35:26;2.90;99.90
13589;DHT22;6865;52.552;13.434;2023-11-22T14:37:54;2.60;99.90
13589;DHT22;6865;52.552;13.434;2023-11-22T14:40:21;2.70;99.90
13589;DHT22;6865;52.552;13.434;2023-11-22T14:42:49;2.50;99.90
13589;DHT22;6865;52.552;13.434;2023-11-22T14:45:19;2.50;99.90
13589;DHT22;6865;52.552;13.434;2023-11-22T14:47:47;2.40;99.90
13589;DHT22;6865;52.552;13.434;2023-11-22T14:50:14;2.40;1.00
13589;DHT22;6865;52.552;13.434;2023-11-22T14:52:42;2.40;1.00
13589;DHT22;6865;52.552;13.434;2023-11-22T14:55:11;2.40;1.00
13589;DHT22;6865;52.552;13.434;2023-11-22T14:57:39;2.40;1.00
13589;DHT22;6865;52.552;13.434;2023-11-22T15:00:06;2.40;1.00
13589;DHT22;6865;52.552;13.434;2023-11-22T15:02:36;2.30;15.20
13589;DHT22;6865;52.552;13.434;2023-11-22T15:05:03;2.30;99.90
13589;DHT22;6865;52.552;13.434;2023-11-22T15:07:31;2.20;99.90
13589;DHT22;6865;52.552;13.434;2023-11-22T15:09:59;1.80;99.90
13589;DHT22;6865;52.552;13.434;2023-11-22T15:12:26;2.20;99.90
13589;DHT22;6865;52.552;13.434;2023-11-22T15:14:56;1.70;99.90
13589;DHT22;6865;52.552;13.434;2023-11-22T15:17:23;2.30;99.90
13589;DHT22;6865;52.552;13.434;2023-11-22T15:19:50;2.30;99.90
13589;DHT22;6865;52.552;13.434;2023-11-22T15:22:18;2.40;99.90
13589;DHT22;6865;52.552;13.434;2023-11-22T15:24:44;2.40;1.00
13589;DHT22;6865;52.552;13.434;2023-11-22T15:27:11;2.10;1.00
13589;DHT22;6865;52.552;13.434;2023-11-22T15:29:39;2.00;1.00
13589;DHT22;6865;52.552;13.434;2023-11-22T15:32:06;2.00;1.00
13589;DHT22;6865;52.552;13.434;2023-11-22T15:34:33;1.90;1.00
13589;DHT22;6865;52.552;13.434;2023-11-22T15:37:00;1.90;1.00
13589;DHT22;6865;52.552;13.434;2023-11-22T15:39:26;1.80;1.00
13589;DHT22;6865;52.552;13.434;2023-11-22T15:41:53;1.90;1.00
13589;DHT22;6865;52.552;13.434;2023-11-22T15:44:20;2.00;1.00
13589;DHT22;6865;52.552;13.434;2023-11-22T15:46:46;2.00;10.90
13589;DHT22;6865;52.552;13.434;2023-11-22T15:49:14;2.00;99.90